This is the latest recevied weather packets stored in our database for station/object I1SXT-13. If no packets are shown the sender has not sent any weather packets the latest 10 day(s).
| Time | Temp. | Humidity | Pressure | Rain* | Wind** | Luminosity | Snow |
|---|---|---|---|---|---|---|---|
| 1777770264 | 12.22° C | 59% | 1021.9 hPa | 0 mm | - | - | - |
| 1777769966 | 11.67° C | 63% | 1022.3 hPa | 0 mm | - | - | - |
| 1777769670 | 11.11° C | 67% | 1022.2 hPa | 0 mm | - | - | - |
| 1777769366 | 10.56° C | 70% | 1022.4 hPa | 0 mm | - | - | - |
| 1777768764 | 11.11° C | 66% | 1022.2 hPa | 0 mm | - | - | - |
| 1777768467 | 11.11° C | 68% | 1022.6 hPa | 0 mm | - | - | - |
| 1777768163 | 10.56° C | 71% | 1022.8 hPa | 0 mm | - | - | - |
| 1777767866 | 10.56° C | 72% | 1022.2 hPa | 0 mm | - | - | - |
| 1777767569 | 10.56° C | 73% | 1022.4 hPa | 0 mm | - | - | - |
| 1777767265 | 10.56° C | 73% | 1022.4 hPa | 0 mm | - | - | - |
| 1777766968 | 10.56° C | 72% | 1022 hPa | 0 mm | - | - | - |
| 1777766664 | 11.11° C | 70% | 1022.2 hPa | 0 mm | - | - | - |
| 1777766367 | 11.67° C | 68% | 1022.8 hPa | 0 mm | - | - | - |
| 1777766070 | 11.67° C | 67% | 1022.8 hPa | 0 mm | - | - | - |
| 1777765766 | 12.22° C | 66% | 1022.4 hPa | 0 mm | - | - | - |
| 1777765165 | 12.78° C | 55% | 1022.7 hPa | 0 mm | - | - | - |
| 1777764564 | 13.89° C | 54% | 1022.4 hPa | 0 mm | - | - | - |
| 1777764266 | 13.89° C | 53% | 1022.4 hPa | 0 mm | - | - | - |
| 1777763969 | 13.89° C | 53% | 1023.2 hPa | 0 mm | - | - | - |
| 1777763665 | 13.89° C | 53% | 1022.8 hPa | 0 mm | - | - | - |
| 1777763368 | 13.89° C | 53% | 1022.8 hPa | 0 mm | - | - | - |
| 1777763064 | 13.89° C | 53% | 1023.4 hPa | 0 mm | - | - | - |
| 1777762767 | 13.89° C | 54% | 1022.8 hPa | 0 mm | - | - | - |
| 1777762470 | 13.89° C | 55% | 1022.6 hPa | 0 mm | - | - | - |
| 1777762166 | 13.89° C | 55% | 1023 hPa | 0 mm | - | - | - |
* Rain since midnight (hover to see other rain measurements)
** Current wind speed in m/s (hover to see current wind gust speed)